• location
  • image
mod_vvisit_countermod_vvisit_countermod_vvisit_countermod_vvisit_countermod_vvisit_countermod_vvisit_counter
mod_vvisit_counterToday287
mod_vvisit_counterYesterday1244
mod_vvisit_counterThis week3148
mod_vvisit_counterLast week4360
mod_vvisit_counterThis month5379
mod_vvisit_counterLast month17439
mod_vvisit_counterAll days504165

We have: 10 guests, 4 bots online
Your IP: 54.166.112.64
 , 
Today: Dec 09, 2016
Airport

AP V2 EN

 

 

You can watch a film about services of Siauliai International Airport

Today

Friday, 09 December 2016

Weather Forecast

Siauliai °C
   

Aviation Weather Forecast

[source: ADDS]
METAR
EYSA 091650Z 29019G29KT 9999 OVC012 06/05 Q1005 R32R/290195 R32L/290195 GRN NOSIG =
TAF
TAF EYSA 091700Z 0918/1003 27016KT 7000 OVC010 TEMPO 0921/1003 BKN005 =
SR / SS: 06:41 / 14:00 UTC (EYSA 2016-12-09)

Search

Who's Online

We have 14 guests online

tic logo en